Terminal Aerodrome Forecast
Issued by NWS

Home | Current Version | Previous Version | Text Only | Print | Product List | Glossary On
Versions: 1 2 3 4 5 6 7 8 9 10 11 12 13 14 15 16 17 18 19
187
FTUS43 KAPX 072337
TAFMBL
TAF
KMBL 072337Z 0800/0824 26017G24KT P6SM OVC020
     FM080300 27017G25KT P6SM -SHSN OVC020
     FM081200 28017G25KT 6SM -SHSN BLSN OVC015
     FM082100 31016G26KT 2SM -SHSN BLSN OVC020=

USA.gov is the U.S. government's official web portal to all federal, state and local government web resources and services.